createdAt,value
2022-12-18T00:00:57.602Z,82.46
2022-12-18T00:05:09.323Z,82.76
2022-12-18T00:09:21.315Z,82.70
2022-12-18T00:13:36.657Z,82.73
2022-12-18T00:17:48.457Z,82.49
2022-12-18T00:22:00.096Z,82.82
2022-12-18T00:26:18.088Z,82.68
2022-12-18T00:30:29.960Z,82.43
2022-12-18T00:34:41.586Z,82.74
2022-12-18T00:38:55.750Z,83.13
2022-12-18T00:43:07.352Z,83.04
2022-12-18T00:47:23.160Z,83.24
2022-12-18T00:51:34.887Z,83.02
2022-12-18T00:55:46.831Z,83.17
2022-12-18T00:59:58.659Z,83.41
2022-12-18T01:04:10.359Z,83.64
2022-12-18T01:08:22.766Z,83.19
2022-12-18T01:12:35.038Z,83.75
2022-12-18T01:16:46.716Z,83.17
2022-12-18T01:20:58.524Z,83.78
2022-12-18T01:25:10.296Z,83.38
2022-12-18T01:29:21.882Z,83.63
2022-12-18T01:33:33.472Z,83.33
2022-12-18T01:37:45.009Z,83.40
2022-12-18T01:42:02.635Z,83.69
2022-12-18T01:46:18.762Z,83.72
2022-12-18T01:50:40.929Z,83.58
2022-12-18T01:54:53.392Z,83.55
2022-12-18T01:59:10.202Z,83.53
2022-12-18T02:03:22.042Z,83.44
2022-12-18T02:08:24.399Z,83.32
2022-12-18T02:13:02.905Z,83.57
2022-12-18T02:17:24.260Z,83.57
2022-12-18T02:21:58.357Z,83.38
2022-12-18T02:26:35.652Z,83.87
2022-12-18T02:30:50.146Z,83.72
2022-12-18T02:35:05.495Z,83.55
2022-12-18T02:39:21.826Z,83.81
2022-12-18T02:43:48.635Z,83.53
2022-12-18T02:48:03.572Z,83.52
2022-12-18T02:52:26.943Z,83.38
2022-12-18T02:56:46.944Z,83.65
2022-12-18T03:01:12.578Z,83.63
2022-12-18T03:05:39.787Z,83.48
2022-12-18T03:09:55.085Z,83.73
2022-12-18T03:14:08.562Z,83.42
2022-12-18T03:18:26.365Z,83.76
2022-12-18T03:22:40.044Z,83.64
2022-12-18T03:26:55.279Z,83.71
2022-12-18T03:31:10.789Z,83.79
2022-12-18T03:35:27.354Z,83.62
2022-12-18T03:39:39.456Z,83.43
2022-12-18T03:44:14.888Z,83.87
2022-12-18T03:48:40.242Z,83.80
2022-12-18T03:53:03.870Z,83.80
2022-12-18T03:57:22.553Z,83.83
2022-12-18T04:01:41.443Z,83.97
2022-12-18T04:05:56.364Z,83.76
2022-12-18T04:10:10.643Z,83.77
2022-12-18T04:14:26.175Z,84.04
2022-12-18T04:18:41.006Z,83.66
2022-12-18T04:22:53.743Z,83.56
2022-12-18T04:27:06.251Z,83.66
2022-12-18T04:31:24.727Z,83.96
2022-12-18T04:35:36.486Z,83.61
2022-12-18T04:39:48.252Z,83.78
2022-12-18T04:44:06.840Z,84.10
2022-12-18T04:48:18.416Z,84.19
2022-12-18T04:52:32.859Z,83.99
2022-12-18T04:56:44.461Z,83.95
2022-12-18T05:00:56.045Z,83.92
2022-12-18T05:05:08.197Z,83.90
2022-12-18T05:09:19.774Z,84.13
2022-12-18T05:13:32.463Z,83.92
2022-12-18T05:17:43.965Z,84.19
2022-12-18T05:21:55.466Z,83.98
2022-12-18T05:26:08.810Z,83.82
2022-12-18T05:30:20.461Z,83.88
2022-12-18T05:34:32.093Z,84.06
2022-12-18T05:38:43.705Z,83.91
2022-12-18T05:42:55.262Z,84.11
2022-12-18T05:47:07.084Z,83.81
2022-12-18T05:51:21.490Z,83.81
2022-12-18T05:55:37.422Z,83.85
2022-12-18T05:59:49.010Z,84.09
2022-12-18T06:04:00.666Z,84.13
2022-12-18T06:08:13.953Z,84.19
2022-12-18T06:12:25.580Z,84.24
2022-12-18T06:16:37.339Z,84.39
2022-12-18T06:21:00.258Z,84.34
2022-12-18T06:25:11.847Z,83.99
2022-12-18T06:29:23.525Z,84.11
2022-12-18T06:33:35.762Z,84.08
2022-12-18T06:37:47.291Z,84.24
2022-12-18T06:41:59.000Z,84.31
2022-12-18T06:46:29.129Z,84.17
2022-12-18T06:50:43.469Z,84.23
2022-12-18T06:54:55.109Z,84.18
2022-12-18T06:59:06.694Z,84.06
2022-12-18T07:03:18.262Z,83.82
2022-12-18T07:07:29.790Z,84.07
2022-12-18T07:11:41.417Z,84.14
2022-12-18T07:15:52.948Z,84.29
2022-12-18T07:20:05.007Z,83.90
2022-12-18T07:24:16.602Z,83.77
2022-12-18T07:28:28.252Z,84.24
2022-12-18T07:32:39.756Z,83.80
2022-12-18T07:36:51.276Z,84.04
2022-12-18T07:41:03.964Z,83.80
2022-12-18T07:45:18.273Z,83.57
2022-12-18T07:49:29.802Z,83.86
2022-12-18T07:53:41.872Z,83.61
2022-12-18T07:57:59.207Z,83.52
2022-12-18T08:02:12.691Z,83.94
2022-12-18T08:06:24.841Z,83.66
2022-12-18T08:10:36.609Z,83.75
2022-12-18T08:14:48.090Z,83.61
2022-12-18T08:18:59.614Z,83.44
2022-12-18T08:23:11.102Z,83.61
2022-12-18T08:27:30.294Z,83.21
2022-12-18T08:31:42.140Z,83.22
2022-12-18T08:35:54.113Z,82.87
2022-12-18T08:40:06.391Z,83.17
2022-12-18T08:44:36.656Z,82.87
2022-12-18T08:48:48.927Z,83.05
2022-12-18T08:53:01.131Z,82.43
2022-12-18T08:57:12.671Z,81.95
2022-12-18T09:01:25.006Z,81.57
2022-12-18T09:05:37.191Z,82.03
2022-12-18T09:09:48.893Z,81.82
2022-12-18T09:14:01.938Z,81.40
2022-12-18T09:18:14.807Z,81.30
2022-12-18T09:22:26.373Z,80.57
2022-12-18T09:26:38.156Z,80.57
2022-12-18T09:30:51.108Z,79.46
2022-12-18T09:35:02.815Z,78.64
2022-12-18T09:39:14.760Z,78.39
2022-12-18T09:43:42.183Z,78.09
2022-12-18T09:47:56.509Z,78.35
2022-12-18T09:52:29.761Z,77.29
2022-12-18T09:56:43.937Z,77.29
2022-12-18T10:00:56.690Z,76.68
2022-12-18T10:05:13.361Z,76.47
2022-12-18T10:10:12.614Z,75.78
2022-12-18T10:14:48.498Z,75.57
2022-12-18T10:19:18.300Z,75.78
2022-12-18T10:24:00.133Z,75.38
2022-12-18T10:28:14.951Z,75.10
2022-12-18T10:32:29.605Z,74.69
2022-12-18T10:36:41.661Z,74.59
2022-12-18T10:40:53.185Z,73.96
2022-12-18T10:45:11.389Z,73.10
2022-12-18T10:49:32.220Z,73.37
2022-12-18T10:53:44.041Z,72.07
2022-12-18T10:58:22.232Z,72.28
2022-12-18T11:02:39.401Z,72.15
2022-12-18T11:07:01.594Z,72.14
2022-12-18T11:11:23.940Z,72.29
2022-12-18T11:15:35.742Z,72.68
2022-12-18T11:19:54.964Z,71.96
2022-12-18T11:24:20.305Z,71.73
2022-12-18T11:28:43.441Z,71.30
2022-12-18T11:32:59.617Z,71.22
2022-12-18T11:37:14.075Z,71.64
2022-12-18T11:42:10.584Z,71.45
2022-12-18T11:46:44.469Z,71.40
2022-12-18T11:50:58.212Z,70.89
2022-12-18T11:55:50.217Z,71.50
2022-12-18T12:00:18.972Z,71.09
2022-12-18T12:05:01.113Z,70.71
2022-12-18T12:09:39.140Z,70.76
2022-12-18T12:14:12.612Z,70.45
2022-12-18T12:18:53.099Z,70.50
2022-12-18T12:23:12.351Z,70.24
2022-12-18T12:27:43.958Z,70.02
2022-12-18T12:32:17.112Z,69.57
2022-12-18T12:36:58.062Z,69.49
2022-12-18T12:41:51.066Z,69.92
2022-12-18T12:46:11.842Z,69.86
2022-12-18T12:50:24.678Z,69.09
2022-12-18T12:54:37.627Z,69.06
2022-12-18T12:59:39.533Z,69.04
2022-12-18T13:04:00.879Z,68.75
2022-12-18T13:08:27.397Z,68.81
2022-12-18T13:12:58.333Z,68.78
2022-12-18T13:17:22.138Z,68.75
2022-12-18T13:21:35.007Z,68.55
2022-12-18T13:25:47.122Z,68.53
2022-12-18T13:29:59.456Z,68.75
2022-12-18T13:43:49.351Z,67.73
2022-12-18T13:48:01.096Z,68.04
2022-12-18T13:52:22.264Z,68.16
2022-12-18T13:56:35.617Z,67.79
2022-12-18T14:00:47.722Z,68.19
2022-12-18T14:05:00.212Z,67.90
2022-12-18T14:09:20.341Z,67.57
2022-12-18T14:13:38.357Z,67.63
2022-12-18T14:17:52.005Z,67.93
2022-12-18T14:22:04.198Z,67.74
2022-12-18T14:26:24.041Z,67.42
2022-12-18T14:30:44.435Z,67.51
2022-12-18T14:34:56.285Z,67.20
2022-12-18T14:39:18.405Z,66.95
2022-12-18T14:43:34.224Z,66.32
2022-12-18T14:47:46.002Z,66.17
2022-12-18T14:52:07.255Z,66.21
2022-12-18T14:56:26.779Z,66.07
2022-12-18T15:00:45.575Z,66.03
2022-12-18T15:05:11.298Z,66.33
2022-12-18T15:09:26.926Z,66.06
2022-12-18T15:13:39.023Z,65.70
2022-12-18T15:17:58.232Z,65.15
2022-12-18T15:22:21.409Z,65.69
2022-12-18T15:26:38.576Z,65.98
2022-12-18T15:31:22.335Z,65.49
2022-12-18T15:35:33.934Z,65.93
2022-12-18T15:39:45.591Z,65.79
2022-12-18T15:43:57.210Z,66.10
2022-12-18T15:48:29.135Z,65.90
2022-12-18T15:52:45.081Z,66.20
2022-12-18T15:57:15.225Z,66.09
2022-12-18T16:01:30.149Z,66.60
2022-12-18T16:05:41.972Z,66.59
2022-12-18T16:09:53.772Z,66.48
2022-12-18T16:14:22.441Z,66.75
2022-12-18T16:18:33.994Z,66.74
2022-12-18T16:22:47.071Z,66.54
2022-12-18T16:27:00.685Z,66.61
2022-12-18T16:31:12.340Z,66.26
2022-12-18T16:35:25.124Z,66.49
2022-12-18T16:39:38.074Z,66.76
2022-12-18T16:43:54.690Z,66.70
2022-12-18T16:48:06.776Z,66.21
2022-12-18T16:52:18.913Z,66.40
2022-12-18T16:56:32.259Z,66.49
2022-12-18T17:00:43.808Z,66.19
2022-12-18T17:04:57.253Z,66.75
2022-12-18T17:09:24.686Z,66.92
2022-12-18T17:13:36.513Z,66.71
2022-12-18T17:17:48.154Z,66.76
2022-12-18T17:22:00.082Z,66.84
2022-12-18T17:26:13.008Z,66.96
2022-12-18T17:30:24.593Z,67.28
2022-12-18T17:34:37.029Z,66.87
2022-12-18T17:38:53.717Z,67.45
2022-12-18T17:43:05.342Z,67.50
2022-12-18T17:47:17.044Z,67.25
2022-12-18T17:51:30.217Z,67.43
2022-12-18T17:55:41.859Z,67.58
2022-12-18T17:59:53.472Z,67.94
2022-12-18T18:04:05.624Z,68.06
2022-12-18T18:08:17.344Z,67.80
2022-12-18T18:12:47.564Z,68.06
2022-12-18T18:17:04.323Z,68.19
2022-12-18T18:21:16.731Z,68.45
2022-12-18T18:25:28.628Z,67.77
2022-12-18T18:29:40.421Z,68.40
2022-12-18T18:33:52.315Z,68.51
2022-12-18T18:38:04.480Z,68.48
2022-12-18T18:42:16.141Z,68.70
2022-12-18T18:46:27.785Z,68.46
2022-12-18T18:50:39.407Z,68.83
2022-12-18T18:55:11.599Z,68.79
2022-12-18T18:59:31.163Z,68.83
2022-12-18T19:03:44.514Z,68.91
2022-12-18T19:07:56.266Z,69.18
2022-12-18T19:12:26.708Z,69.25
2022-12-18T19:16:38.877Z,69.15
2022-12-18T19:20:59.901Z,69.50
2022-12-18T19:25:11.488Z,69.85
2022-12-18T19:29:23.288Z,69.62
2022-12-18T19:33:43.682Z,69.59
2022-12-18T19:38:10.858Z,69.57
2022-12-18T19:42:28.064Z,69.71
2022-12-18T19:46:46.092Z,69.89
2022-12-18T19:50:57.781Z,69.68
2022-12-18T19:55:09.700Z,69.62
2022-12-18T19:59:27.255Z,69.66
2022-12-18T20:03:40.415Z,69.75
2022-12-18T20:07:59.001Z,70.14
2022-12-18T20:12:26.229Z,70.10
2022-12-18T20:16:41.483Z,70.24
2022-12-18T20:20:53.613Z,71.07
2022-12-18T20:25:08.323Z,71.19
2022-12-18T20:29:19.909Z,71.63
2022-12-18T20:33:31.503Z,72.04
2022-12-18T20:37:49.863Z,72.41
2022-12-18T20:42:03.764Z,72.99
2022-12-18T20:46:16.966Z,73.25
2022-12-18T20:51:09.529Z,74.14
2022-12-18T20:55:49.099Z,75.68
2022-12-18T21:00:18.865Z,76.36
2022-12-18T21:04:40.694Z,76.58
2022-12-18T21:08:54.153Z,76.99
2022-12-18T21:13:15.266Z,77.78
2022-12-18T21:17:44.728Z,77.85
2022-12-18T21:22:08.693Z,78.24
2022-12-18T21:26:34.005Z,78.70
2022-12-18T21:30:50.281Z,79.36
2022-12-18T21:35:13.040Z,79.52
2022-12-18T21:39:30.025Z,79.84
2022-12-18T21:44:03.771Z,79.68
2022-12-18T21:48:30.417Z,80.12
2022-12-18T21:52:48.492Z,79.97
2022-12-18T21:57:25.569Z,80.82
2022-12-18T22:01:46.541Z,81.62
2022-12-18T22:06:09.805Z,81.98
2022-12-18T22:10:31.983Z,82.82
2022-12-18T22:15:03.480Z,83.10
2022-12-18T22:24:07.304Z,84.30
2022-12-18T22:28:53.731Z,83.82
2022-12-18T22:33:11.263Z,84.27
2022-12-18T22:37:35.172Z,85.57
2022-12-18T22:41:55.661Z,85.70
2022-12-18T22:46:25.216Z,85.45
2022-12-18T22:50:40.531Z,85.60
2022-12-18T22:54:55.648Z,85.76
2022-12-18T22:59:20.951Z,86.19
2022-12-18T23:03:45.085Z,86.10
2022-12-18T23:08:01.659Z,86.49
2022-12-18T23:12:28.914Z,86.49
2022-12-18T23:16:49.637Z,86.27
2022-12-18T23:21:15.230Z,85.98
2022-12-18T23:25:38.840Z,86.31
2022-12-18T23:29:54.998Z,86.59
2022-12-18T23:34:13.961Z,86.33
2022-12-18T23:38:39.481Z,86.37
2022-12-18T23:47:38.681Z,86.74
2022-12-18T23:51:55.300Z,87.12
2022-12-18T23:56:12.807Z,87.16
